createdAt,value
2023-04-10T00:02:27.844Z,5.30
2023-04-10T00:04:56.053Z,5.30
2023-04-10T00:07:24.247Z,5.30
2023-04-10T00:09:53.643Z,5.40
2023-04-10T00:12:21.869Z,5.30
2023-04-10T00:14:50.049Z,5.30
2023-04-10T00:17:18.353Z,5.30
2023-04-10T00:19:46.413Z,5.60
2023-04-10T00:22:14.587Z,5.60
2023-04-10T00:24:42.608Z,5.30
2023-04-10T00:27:12.023Z,5.20
2023-04-10T00:29:40.071Z,5.10
2023-04-10T00:32:08.163Z,5.00
2023-04-10T00:34:36.353Z,5.00
2023-04-10T00:37:04.457Z,5.10
2023-04-10T00:39:32.510Z,5.00
2023-04-10T00:42:02.319Z,5.20
2023-04-10T00:44:31.779Z,5.40
2023-04-10T00:46:59.947Z,5.60
2023-04-10T00:49:28.038Z,5.60
2023-04-10T00:51:58.329Z,5.50
2023-04-10T00:54:26.802Z,5.30
2023-04-10T00:56:54.862Z,5.20
2023-04-10T00:59:22.987Z,5.00
2023-04-10T01:01:52.641Z,5.10
2023-04-10T01:04:21.044Z,5.10
2023-04-10T01:06:58.877Z,5.00
2023-04-10T01:09:36.990Z,5.10
2023-04-10T01:12:24.310Z,5.30
2023-04-10T01:15:02.417Z,5.30
2023-04-10T01:17:36.901Z,5.30
2023-04-10T01:20:08.740Z,5.20
2023-04-10T01:22:39.323Z,5.30
2023-04-10T01:25:22.160Z,5.10
2023-04-10T01:28:06.047Z,5.00
2023-04-10T01:30:37.170Z,5.10
2023-04-10T01:33:07.505Z,4.90
2023-04-10T01:35:36.545Z,4.90
2023-04-10T01:38:07.976Z,5.00
2023-04-10T01:40:38.262Z,5.20
2023-04-10T01:43:08.057Z,5.30
2023-04-10T01:45:37.775Z,5.40
2023-04-10T01:48:06.334Z,5.50
2023-04-10T01:50:35.382Z,5.40
2023-04-10T01:53:04.847Z,5.40
2023-04-10T01:55:33.172Z,5.10
2023-04-10T01:58:01.539Z,5.00
2023-04-10T02:00:29.932Z,4.90
2023-04-10T02:02:59.723Z,4.80
2023-04-10T02:05:30.680Z,4.90
2023-04-10T02:08:03.507Z,4.80
2023-04-10T02:10:38.985Z,4.70
2023-04-10T02:13:08.407Z,4.70
2023-04-10T02:15:37.186Z,4.70
2023-04-10T02:18:08.211Z,4.70
2023-04-10T02:20:36.375Z,4.70
2023-04-10T02:23:05.576Z,4.70
2023-04-10T02:25:34.107Z,4.70
2023-04-10T02:28:05.613Z,4.70
2023-04-10T02:30:34.107Z,4.90
2023-04-10T02:33:02.483Z,4.80
2023-04-10T02:35:32.373Z,4.70
2023-04-10T02:38:00.367Z,4.60
2023-04-10T02:40:28.563Z,4.60
2023-04-10T02:42:56.721Z,4.60
2023-04-10T02:45:24.758Z,4.60
2023-04-10T02:47:52.912Z,4.60
2023-04-10T02:50:21.059Z,4.80
2023-04-10T02:52:50.486Z,4.60
2023-04-10T02:55:18.807Z,4.50
2023-04-10T02:57:47.198Z,4.40
2023-04-10T03:00:16.226Z,4.30
2023-04-10T03:02:44.447Z,4.30
2023-04-10T03:05:12.801Z,4.40
2023-04-10T03:07:40.834Z,4.50
2023-04-10T03:10:11.235Z,4.70
2023-04-10T03:12:39.297Z,4.80
2023-04-10T03:15:08.716Z,4.80
2023-04-10T03:17:36.911Z,4.80
2023-04-10T03:20:05.436Z,4.80
2023-04-10T03:22:33.456Z,4.80
2023-04-10T03:25:01.592Z,4.60
2023-04-10T03:27:34.751Z,4.40
2023-04-10T03:30:02.990Z,4.40
2023-04-10T03:32:32.000Z,4.50
2023-04-10T03:35:00.010Z,4.30
2023-04-10T03:37:28.476Z,4.40
2023-04-10T03:39:56.882Z,4.50
2023-04-10T03:42:24.963Z,4.50
2023-04-10T03:44:54.374Z,4.50
2023-04-10T03:47:22.470Z,4.40
2023-04-10T03:49:50.618Z,4.50
2023-04-10T03:52:18.678Z,4.40
2023-04-10T03:54:46.652Z,4.40
2023-04-10T03:57:14.695Z,4.20
2023-04-10T03:59:42.706Z,4.20
2023-04-10T04:02:12.331Z,4.20
2023-04-10T04:04:41.302Z,4.20
2023-04-10T04:07:10.573Z,4.30
2023-04-10T04:09:39.762Z,4.30
2023-04-10T04:12:08.810Z,4.30
2023-04-10T04:14:37.446Z,4.10
2023-04-10T04:17:05.862Z,4.10
2023-04-10T04:19:35.897Z,4.10
2023-04-10T04:22:04.208Z,4.20
2023-04-10T04:24:32.490Z,4.10
2023-04-10T04:27:01.580Z,4.00
2023-04-10T04:29:29.912Z,3.90
2023-04-10T04:31:58.516Z,3.90
2023-04-10T04:34:26.877Z,3.90
2023-04-10T04:36:56.576Z,3.90
2023-04-10T04:39:24.828Z,4.00
2023-04-10T04:41:53.163Z,3.90
2023-04-10T04:44:21.719Z,3.80
2023-04-10T04:46:50.171Z,3.80
2023-04-10T04:49:18.729Z,3.80
2023-04-10T04:51:47.343Z,3.70
2023-04-10T04:54:16.981Z,3.70
2023-04-10T04:56:45.259Z,3.80
2023-04-10T04:59:13.553Z,3.60
2023-04-10T05:01:41.752Z,3.80
2023-04-10T05:04:10.126Z,3.60
2023-04-10T05:06:38.479Z,3.40
2023-04-10T05:09:06.937Z,3.60
2023-04-10T05:11:36.788Z,3.80
2023-04-10T05:14:05.138Z,3.80
2023-04-10T05:16:33.908Z,3.70
2023-04-10T05:19:02.187Z,4.00
2023-04-10T05:21:31.400Z,4.10
2023-04-10T05:24:00.298Z,4.30
2023-04-10T05:26:28.801Z,4.30
2023-04-10T05:28:58.838Z,4.20
2023-04-10T05:31:27.181Z,4.00
2023-04-10T05:33:55.710Z,4.00
2023-04-10T05:36:24.014Z,3.90
2023-04-10T05:38:52.673Z,3.70
2023-04-10T05:41:21.954Z,3.80
2023-04-10T05:43:50.693Z,3.70
2023-04-10T05:46:20.545Z,3.90
2023-04-10T05:48:49.045Z,4.30
2023-04-10T05:51:17.732Z,4.30
2023-04-10T05:53:46.022Z,4.20
2023-04-10T05:56:14.713Z,4.40
2023-04-10T05:58:43.626Z,4.20
2023-04-10T06:01:13.733Z,4.20
2023-04-10T06:03:43.676Z,4.20
2023-04-10T06:06:12.116Z,4.30
2023-04-10T06:08:40.652Z,4.40
2023-04-10T06:11:09.553Z,4.40
2023-04-10T06:13:39.210Z,4.50
2023-04-10T06:16:11.014Z,4.50
2023-04-10T06:18:39.954Z,4.60
2023-04-10T06:21:10.341Z,4.70
2023-04-10T06:23:38.541Z,4.80
2023-04-10T06:26:06.977Z,4.80
2023-04-10T06:28:35.287Z,4.80
2023-04-10T06:31:04.535Z,5.00
2023-04-10T06:33:32.621Z,5.20
2023-04-10T06:36:01.294Z,5.50
2023-04-10T06:38:31.416Z,6.20
2023-04-10T06:40:59.733Z,6.30
2023-04-10T06:43:29.282Z,6.40
2023-04-10T06:45:57.694Z,6.60
2023-04-10T06:48:26.038Z,6.90
2023-04-10T06:50:54.250Z,7.10
2023-04-10T06:53:23.001Z,7.40
2023-04-10T06:55:52.930Z,7.40
2023-04-10T06:58:21.294Z,7.50
2023-04-10T07:00:49.888Z,7.70
2023-04-10T07:03:18.454Z,7.80
2023-04-10T07:05:46.833Z,8.00
2023-04-10T07:08:15.321Z,7.90
2023-04-10T07:10:46.305Z,8.00
2023-04-10T07:13:16.373Z,8.10
2023-04-10T07:15:44.765Z,8.60
2023-04-10T07:18:13.392Z,8.60
2023-04-10T07:20:41.997Z,8.80
2023-04-10T07:23:10.677Z,9.00
2023-04-10T07:25:38.985Z,9.20
2023-04-10T07:28:07.209Z,9.50
2023-04-10T07:30:37.135Z,9.70
2023-04-10T07:33:05.541Z,9.90
2023-04-10T07:35:34.578Z,9.90
2023-04-10T07:38:03.298Z,10.10
2023-04-10T07:40:31.677Z,10.20
2023-04-10T07:43:00.081Z,10.20
2023-04-10T07:45:29.242Z,10.50
2023-04-10T07:47:59.659Z,10.50
2023-04-10T07:50:27.931Z,10.70
2023-04-10T07:52:56.540Z,10.70
2023-04-10T07:55:24.971Z,10.70
2023-04-10T07:57:53.665Z,10.80
2023-04-10T08:00:22.437Z,11.10
2023-04-10T08:02:51.652Z,11.20
2023-04-10T08:05:22.034Z,11.30
2023-04-10T08:07:50.519Z,11.20
2023-04-10T08:10:18.817Z,11.30
2023-04-10T08:12:47.917Z,11.30
2023-04-10T08:15:16.401Z,11.30
2023-04-10T08:17:44.673Z,11.40
2023-04-10T08:20:13.978Z,11.50
2023-04-10T08:22:44.075Z,11.50
2023-04-10T08:25:12.564Z,11.60
2023-04-10T08:27:41.257Z,11.80
2023-04-10T08:30:10.636Z,12.00
2023-04-10T08:32:40.185Z,12.20
2023-04-10T08:35:09.908Z,12.30
2023-04-10T08:37:38.133Z,12.40
2023-04-10T08:40:09.200Z,12.70
2023-04-10T08:42:37.746Z,12.80
2023-04-10T08:45:06.962Z,12.80
2023-04-10T08:47:38.286Z,12.90
2023-04-10T08:50:09.626Z,13.00
2023-04-10T08:52:39.899Z,13.20
2023-04-10T08:55:11.176Z,13.30
2023-04-10T08:57:42.864Z,13.50
2023-04-10T09:00:23.136Z,13.70
2023-04-10T09:02:58.098Z,13.70
2023-04-10T09:05:29.035Z,13.90
2023-04-10T09:07:57.490Z,14.00
2023-04-10T09:10:27.230Z,14.10
2023-04-10T09:12:55.371Z,14.20
2023-04-10T09:15:23.914Z,14.20
2023-04-10T09:18:00.558Z,14.40
2023-04-10T09:20:34.441Z,14.30
2023-04-10T09:23:03.277Z,14.30
2023-04-10T09:25:35.077Z,14.30
2023-04-10T09:28:05.524Z,14.30
2023-04-10T09:30:38.475Z,14.50
2023-04-10T09:33:23.047Z,14.50
2023-04-10T09:35:52.504Z,14.50
2023-04-10T09:38:22.900Z,14.60
2023-04-10T09:40:53.795Z,14.80
2023-04-10T09:43:25.158Z,14.80
2023-04-10T09:45:55.350Z,14.90
2023-04-10T09:48:25.188Z,14.90
2023-04-10T09:50:53.537Z,14.90
2023-04-10T09:53:22.519Z,14.80
2023-04-10T09:55:53.164Z,15.00
2023-04-10T09:58:21.443Z,15.10
2023-04-10T10:00:53.648Z,15.10
2023-04-10T10:03:22.288Z,15.00
2023-04-10T10:05:52.281Z,15.00
2023-04-10T10:08:20.828Z,15.20
2023-04-10T10:10:50.376Z,15.20
2023-04-10T10:13:25.079Z,15.40
2023-04-10T10:15:59.311Z,15.50
2023-04-10T10:18:34.685Z,15.50
2023-04-10T10:21:04.374Z,15.60
2023-04-10T10:23:33.701Z,15.50
2023-04-10T10:26:03.761Z,15.90
2023-04-10T10:28:35.006Z,16.10
2023-04-10T10:31:04.781Z,15.80
2023-04-10T10:33:34.914Z,15.60
2023-04-10T10:36:03.451Z,15.60
2023-04-10T10:38:32.626Z,15.70
2023-04-10T10:41:08.199Z,15.60
2023-04-10T10:43:46.052Z,15.70
2023-04-10T10:46:20.169Z,15.70
2023-04-10T10:48:58.221Z,15.70
2023-04-10T10:51:44.577Z,15.70
2023-04-10T10:54:31.237Z,15.90
2023-04-10T10:57:00.218Z,16.10
2023-04-10T10:59:57.995Z,16.20
2023-04-10T11:02:26.959Z,16.20
2023-04-10T11:04:55.553Z,16.10
2023-04-10T11:07:24.029Z,16.20
2023-04-10T11:09:53.747Z,16.20
2023-04-10T11:12:24.170Z,16.30
2023-04-10T11:15:01.601Z,16.40
2023-04-10T11:17:51.500Z,16.40
2023-04-10T11:20:21.952Z,16.50
2023-04-10T11:23:11.232Z,16.60
2023-04-10T11:25:52.835Z,16.80
2023-04-10T11:28:41.020Z,16.80
2023-04-10T11:31:22.475Z,16.80
2023-04-10T11:33:53.623Z,16.80
2023-04-10T11:36:22.459Z,16.80
2023-04-10T11:38:58.048Z,17.00
2023-04-10T11:41:30.942Z,17.00
2023-04-10T11:43:59.955Z,17.00
2023-04-10T11:46:30.367Z,17.10
2023-04-10T11:49:00.808Z,17.10
2023-04-10T11:51:29.914Z,17.00
2023-04-10T11:54:09.446Z,17.10
2023-04-10T11:56:38.187Z,17.30
2023-04-10T11:59:11.053Z,17.40
2023-04-10T12:01:43.306Z,17.40
2023-04-10T12:04:18.764Z,17.20
2023-04-10T12:06:48.522Z,17.50
2023-04-10T12:09:17.296Z,17.40
2023-04-10T12:11:51.636Z,17.50
2023-04-10T12:14:20.876Z,17.50
2023-04-10T12:16:51.101Z,17.70
2023-04-10T12:19:23.720Z,17.70
2023-04-10T12:21:52.023Z,17.80
2023-04-10T12:24:44.826Z,17.70
2023-04-10T12:27:19.577Z,17.80
2023-04-10T12:29:48.525Z,17.70
2023-04-10T12:32:18.455Z,17.80
2023-04-10T12:34:52.000Z,17.90
2023-04-10T12:37:20.869Z,17.90
2023-04-10T12:39:49.301Z,17.80
2023-04-10T12:42:21.201Z,18.00
2023-04-10T12:44:53.880Z,18.00
2023-04-10T12:47:24.310Z,18.00
2023-04-10T12:50:08.500Z,17.90
2023-04-10T12:52:37.238Z,18.10
2023-04-10T12:55:16.218Z,18.20
2023-04-10T12:57:46.120Z,18.20
2023-04-10T13:00:17.183Z,18.30
2023-04-10T13:02:48.024Z,18.50
2023-04-10T13:05:17.162Z,18.50
2023-04-10T13:07:45.931Z,18.40
2023-04-10T13:10:14.200Z,18.30
2023-04-10T13:12:44.320Z,18.30
2023-04-10T13:15:12.572Z,18.20
2023-04-10T13:17:41.891Z,18.10
2023-04-10T13:20:13.626Z,18.00
2023-04-10T13:22:42.015Z,18.00
2023-04-10T13:25:10.994Z,18.00
2023-04-10T13:27:39.259Z,18.00
2023-04-10T13:30:09.619Z,17.90
2023-04-10T13:32:38.049Z,17.70
2023-04-10T13:35:06.907Z,17.70
2023-04-10T13:37:36.776Z,17.80
2023-04-10T13:40:05.633Z,17.80
2023-04-10T13:42:35.892Z,17.80
2023-04-10T13:45:05.699Z,17.70
2023-04-10T13:47:34.250Z,17.70
2023-04-10T13:50:02.703Z,17.70
2023-04-10T13:52:31.629Z,17.70
2023-04-10T13:55:01.172Z,17.70
2023-04-10T13:57:29.388Z,17.80
2023-04-10T13:59:57.911Z,17.70
2023-04-10T14:02:26.556Z,17.50
2023-04-10T14:04:54.931Z,17.40
2023-04-10T14:07:23.108Z,17.40
2023-04-10T14:09:51.432Z,17.40
2023-04-10T14:12:23.637Z,17.60
2023-04-10T14:14:52.139Z,17.50
2023-04-10T14:17:20.486Z,17.60
2023-04-10T14:19:51.571Z,17.50
2023-04-10T14:22:20.118Z,17.50
2023-04-10T14:24:49.009Z,17.50
2023-04-10T14:27:18.336Z,17.50
2023-04-10T14:29:54.730Z,17.50
2023-04-10T14:32:23.667Z,17.50
2023-04-10T14:34:52.437Z,17.40
2023-04-10T14:37:20.670Z,17.30
2023-04-10T14:39:49.281Z,17.30
2023-04-10T14:42:19.421Z,17.20
2023-04-10T14:44:49.456Z,17.10
2023-04-10T14:47:17.788Z,17.00
2023-04-10T14:49:46.846Z,17.00
2023-04-10T14:52:15.029Z,16.80
2023-04-10T14:54:43.248Z,16.80
2023-04-10T14:57:12.484Z,16.80
2023-04-10T14:59:41.012Z,16.80
2023-04-10T15:02:10.721Z,16.70
2023-04-10T15:04:39.138Z,16.80
2023-04-10T15:07:07.729Z,16.70
2023-04-10T15:09:36.186Z,16.70
2023-04-10T15:12:04.698Z,16.60
2023-04-10T15:14:33.151Z,16.60
2023-04-10T15:17:01.779Z,16.60
2023-04-10T15:19:31.633Z,16.60
2023-04-10T15:22:00.155Z,16.50
2023-04-10T15:24:30.680Z,16.50
2023-04-10T15:27:01.405Z,16.40
2023-04-10T15:29:29.954Z,16.40
2023-04-10T15:32:01.846Z,16.30
2023-04-10T15:34:31.692Z,16.30
2023-04-10T15:37:00.030Z,16.30
2023-04-10T15:39:30.951Z,16.30
2023-04-10T15:42:00.374Z,16.30
2023-04-10T15:44:28.956Z,16.30
2023-04-10T15:46:57.645Z,16.30
2023-04-10T15:49:36.219Z,16.30
2023-04-10T15:52:08.062Z,16.30
2023-04-10T15:54:36.439Z,16.30
2023-04-10T15:57:05.270Z,16.30
2023-04-10T15:59:36.143Z,16.20
2023-04-10T16:02:04.755Z,16.30
2023-04-10T16:04:33.170Z,16.30
2023-04-10T16:07:01.710Z,16.30
2023-04-10T16:09:32.265Z,16.40
2023-04-10T16:12:02.109Z,16.40
2023-04-10T16:14:30.525Z,16.40
2023-04-10T16:16:58.833Z,16.50
2023-04-10T16:19:27.089Z,16.50
2023-04-10T16:21:57.276Z,16.60
2023-04-10T16:24:25.925Z,16.70
2023-04-10T16:26:56.845Z,16.70
2023-04-10T16:29:25.166Z,16.70
2023-04-10T16:31:53.752Z,16.50
2023-04-10T16:34:21.997Z,16.50
2023-04-10T16:36:50.449Z,16.50
2023-04-10T16:39:18.732Z,16.60
2023-04-10T16:41:47.044Z,16.50
2023-04-10T16:44:17.279Z,16.50
2023-04-10T16:46:45.781Z,16.10
2023-04-10T16:49:13.928Z,16.20
2023-04-10T16:51:42.398Z,16.30
2023-04-10T16:54:10.965Z,16.30
2023-04-10T16:56:39.417Z,16.30
2023-04-10T16:59:35.206Z,16.30
2023-04-10T17:02:05.041Z,16.30
2023-04-10T17:04:33.178Z,16.30
2023-04-10T17:07:01.369Z,16.10
2023-04-10T17:09:29.995Z,16.10
2023-04-10T17:11:58.898Z,16.00
2023-04-10T17:14:27.317Z,15.90
2023-04-10T17:16:55.687Z,15.80
2023-04-10T17:19:25.631Z,15.80
2023-04-10T17:21:54.721Z,15.70
2023-04-10T17:24:23.173Z,15.60
2023-04-10T17:26:51.700Z,15.60
2023-04-10T17:29:20.160Z,15.50
2023-04-10T17:31:49.196Z,15.40
2023-04-10T17:34:19.286Z,15.30
2023-04-10T17:36:51.831Z,15.20
2023-04-10T17:39:20.204Z,15.00
2023-04-10T17:41:48.846Z,15.00
2023-04-10T17:44:17.096Z,15.00
2023-04-10T17:46:45.338Z,14.90
2023-04-10T17:49:13.508Z,14.80
2023-04-10T17:51:42.017Z,14.70
2023-04-10T17:54:12.065Z,14.50
2023-04-10T17:56:40.235Z,14.50
2023-04-10T17:59:08.641Z,14.50
2023-04-10T18:01:36.748Z,14.40
2023-04-10T18:04:05.880Z,14.40
2023-04-10T18:06:35.883Z,14.30
2023-04-10T18:09:04.527Z,14.30
2023-04-10T18:11:34.662Z,14.20
2023-04-10T18:14:02.707Z,14.10
2023-04-10T18:16:31.534Z,14.10
2023-04-10T18:18:59.721Z,14.10
2023-04-10T18:21:37.141Z,14.00
2023-04-10T18:24:15.223Z,13.80
2023-04-10T18:26:49.235Z,13.80
2023-04-10T18:29:17.883Z,13.70
2023-04-10T18:31:46.889Z,13.70
2023-04-10T18:34:15.788Z,13.70
2023-04-10T18:36:47.636Z,13.70
2023-04-10T18:39:24.948Z,13.50
2023-04-10T18:41:55.155Z,13.40
2023-04-10T18:44:23.565Z,13.40
2023-04-10T18:47:01.300Z,13.40
2023-04-10T18:49:33.464Z,13.30
2023-04-10T18:52:02.398Z,13.20
2023-04-10T18:54:35.187Z,13.20
2023-04-10T18:57:05.806Z,13.20
2023-04-10T18:59:34.215Z,13.10
2023-04-10T19:02:04.085Z,13.10
2023-04-10T19:04:35.480Z,13.20
2023-04-10T19:07:04.044Z,13.10
2023-04-10T19:09:37.031Z,13.20
2023-04-10T19:12:07.338Z,13.20
2023-04-10T19:14:37.788Z,13.20
2023-04-10T19:17:06.287Z,13.10
2023-04-10T19:19:34.944Z,13.20
2023-04-10T19:22:03.526Z,13.20
2023-04-10T19:24:33.693Z,13.20
2023-04-10T19:27:02.809Z,13.10
2023-04-10T19:29:33.538Z,13.10
2023-04-10T19:32:02.460Z,12.90
2023-04-10T19:34:30.846Z,12.50
2023-04-10T19:37:00.762Z,12.60
2023-04-10T19:39:29.136Z,12.70
2023-04-10T19:41:58.176Z,12.80
2023-04-10T19:44:28.252Z,12.80
2023-04-10T19:46:58.324Z,12.90
2023-04-10T19:49:28.475Z,12.70
2023-04-10T19:51:57.987Z,12.50
2023-04-10T19:54:26.325Z,12.50
2023-04-10T19:56:54.813Z,12.40
2023-04-10T19:59:23.530Z,12.40
2023-04-10T20:01:51.766Z,12.40
2023-04-10T20:04:21.802Z,12.50
2023-04-10T20:06:50.277Z,12.50
2023-04-10T20:09:18.798Z,12.60
2023-04-10T20:14:16.057Z,12.70
2023-04-10T20:16:44.502Z,12.30
2023-04-10T20:19:12.817Z,12.40
2023-04-10T20:21:43.505Z,12.40
2023-04-10T20:24:11.837Z,12.40
2023-04-10T20:26:40.062Z,12.20
2023-04-10T20:29:08.234Z,12.30
2023-04-10T20:31:36.637Z,12.20
2023-04-10T20:34:05.105Z,12.30
2023-04-10T20:36:34.158Z,12.40
2023-04-10T20:39:04.457Z,12.30
2023-04-10T20:41:34.409Z,12.30
2023-04-10T20:44:02.951Z,12.30
2023-04-10T20:46:31.234Z,12.30
2023-04-10T20:48:59.595Z,12.30
2023-04-10T20:51:28.683Z,12.30
2023-04-10T20:53:56.871Z,12.20
2023-04-10T20:56:33.251Z,12.10
2023-04-10T20:59:11.465Z,12.20
2023-04-10T21:01:39.938Z,12.10
2023-04-10T21:04:08.438Z,12.10
2023-04-10T21:06:37.051Z,11.90
2023-04-10T21:09:06.953Z,12.10
2023-04-10T21:11:36.818Z,12.10
2023-04-10T21:14:05.412Z,12.00
2023-04-10T21:16:35.247Z,11.90
2023-04-10T21:19:03.690Z,12.00
2023-04-10T21:21:32.077Z,12.00
2023-04-10T21:24:00.232Z,11.70
2023-04-10T21:26:28.350Z,11.70
2023-04-10T21:28:59.755Z,11.80
2023-04-10T21:31:28.216Z,11.80
2023-04-10T21:33:56.901Z,11.80
2023-04-10T21:36:25.465Z,11.70
2023-04-10T21:38:54.246Z,11.70
2023-04-10T21:41:22.897Z,11.60
2023-04-10T21:43:50.979Z,11.60
2023-04-10T21:46:20.840Z,11.50
2023-04-10T21:48:49.366Z,11.50
